createdAt,value
2017-10-14T00:00:08.828Z,13.6
2017-10-14T00:00:49.395Z,13.67
2017-10-14T00:01:29.992Z,13.57
2017-10-14T00:02:10.581Z,13.62
2017-10-14T00:02:51.134Z,13.65
2017-10-14T00:03:31.704Z,13.65
2017-10-14T00:04:12.266Z,13.59
2017-10-14T00:04:52.837Z,13.63
2017-10-14T00:05:33.396Z,13.67
2017-10-14T00:06:13.949Z,13.6
2017-10-14T00:06:57.234Z,13.7
2017-10-14T00:07:37.823Z,13.6
2017-10-14T00:08:18.391Z,13.65
2017-10-14T00:08:58.948Z,13.67
2017-10-14T00:09:39.531Z,13.68
2017-10-14T00:10:20.116Z,13.57
2017-10-14T00:11:00.686Z,13.65
2017-10-14T00:11:41.258Z,13.72
2017-10-14T00:12:21.840Z,13.7
2017-10-14T00:13:02.421Z,13.62
2017-10-14T00:13:42.980Z,13.59
2017-10-14T00:14:23.558Z,13.62
2017-10-14T00:15:04.122Z,13.6
2017-10-14T00:15:44.695Z,13.63
2017-10-14T00:16:25.270Z,13.62
2017-10-14T00:17:05.837Z,13.65
2017-10-14T00:17:46.419Z,13.59
2017-10-14T00:18:27.005Z,13.67
2017-10-14T00:19:07.603Z,13.59
2017-10-14T00:19:48.159Z,13.67
2017-10-14T00:20:28.736Z,13.6
2017-10-14T00:21:09.300Z,13.65
2017-10-14T00:21:49.864Z,13.67
2017-10-14T00:22:30.417Z,13.62
2017-10-14T00:23:10.981Z,13.6
2017-10-14T00:23:51.551Z,13.57
2017-10-14T00:24:32.120Z,13.65
2017-10-14T00:26:44.935Z,13.57
2017-10-14T00:27:25.507Z,13.62
2017-10-14T00:28:06.056Z,13.56
2017-10-14T00:28:46.617Z,13.59
2017-10-14T00:29:27.216Z,13.63
2017-10-14T00:30:07.798Z,13.62
2017-10-14T00:30:48.361Z,13.62
2017-10-14T00:31:28.940Z,13.59
2017-10-14T00:32:09.499Z,13.54
2017-10-14T00:32:50.073Z,13.54
2017-10-14T00:33:30.679Z,13.62
2017-10-14T00:34:11.243Z,13.53
2017-10-14T00:34:51.836Z,13.57
2017-10-14T00:35:32.405Z,13.56
2017-10-14T00:36:12.986Z,13.52
2017-10-14T00:36:53.564Z,13.56
2017-10-14T00:37:34.161Z,13.56
2017-10-14T00:38:14.749Z,13.59
2017-10-14T00:38:55.353Z,13.54
2017-10-14T00:39:35.924Z,13.52
2017-10-14T00:40:16.515Z,13.57
2017-10-14T00:40:57.084Z,13.54
2017-10-14T00:41:37.670Z,13.6
2017-10-14T00:42:18.252Z,13.53
2017-10-14T00:42:58.808Z,13.53
2017-10-14T00:43:39.394Z,13.54
2017-10-14T00:44:19.990Z,13.59
2017-10-14T00:45:00.556Z,13.62
2017-10-14T00:45:41.134Z,13.59
2017-10-14T00:46:21.709Z,13.57
2017-10-14T00:47:02.286Z,13.59
2017-10-14T00:47:42.884Z,13.62
2017-10-14T00:48:23.466Z,13.54
2017-10-14T00:49:04.056Z,13.62
2017-10-14T00:49:44.669Z,13.62
2017-10-14T00:50:25.256Z,13.59
2017-10-14T00:51:05.868Z,13.6
2017-10-14T00:51:46.449Z,13.62
2017-10-14T00:52:27.018Z,13.6
2017-10-14T00:53:07.615Z,13.68
2017-10-14T00:53:48.217Z,13.65
2017-10-14T00:54:28.847Z,13.65
2017-10-14T00:55:09.437Z,13.63
2017-10-14T00:55:50.006Z,13.62
2017-10-14T00:56:30.572Z,13.59
2017-10-14T00:57:11.131Z,13.67
2017-10-14T00:57:51.691Z,13.57
2017-10-14T00:58:32.284Z,13.6
2017-10-14T00:59:12.873Z,13.67
2017-10-14T00:59:53.432Z,13.7
2017-10-14T01:00:34.035Z,13.67
2017-10-14T01:01:14.613Z,13.7
2017-10-14T01:01:55.186Z,13.65
2017-10-14T01:02:35.754Z,13.7
2017-10-14T01:03:16.341Z,13.6
2017-10-14T01:03:56.909Z,13.7
2017-10-14T01:04:37.469Z,13.71
2017-10-14T01:05:18.039Z,13.68
2017-10-14T01:05:58.605Z,13.7
2017-10-14T01:06:39.185Z,13.75
2017-10-14T01:07:19.768Z,13.77
2017-10-14T01:08:00.327Z,13.71
2017-10-14T01:08:40.885Z,13.7
2017-10-14T01:09:21.443Z,13.78
2017-10-14T01:10:02.003Z,13.74
2017-10-14T01:10:42.587Z,13.83
2017-10-14T01:11:23.147Z,13.74
2017-10-14T01:12:03.715Z,13.75
2017-10-14T01:12:44.280Z,13.77
2017-10-14T01:13:24.874Z,13.81
2017-10-14T01:14:05.514Z,13.78
2017-10-14T01:14:46.066Z,13.83
2017-10-14T01:15:26.620Z,13.78
2017-10-14T01:16:07.193Z,13.77
2017-10-14T01:16:47.776Z,13.77
2017-10-14T01:17:28.360Z,13.79
2017-10-14T01:18:08.953Z,13.78
2017-10-14T01:18:49.542Z,13.77
2017-10-14T01:19:30.124Z,13.81
2017-10-14T01:20:10.702Z,13.75
2017-10-14T01:20:51.264Z,13.81
2017-10-14T01:21:31.834Z,13.79
2017-10-14T01:22:12.425Z,13.79
2017-10-14T01:22:52.992Z,13.79
2017-10-14T01:23:33.633Z,13.78
2017-10-14T01:24:14.214Z,13.77
2017-10-14T01:24:54.795Z,13.83
2017-10-14T01:25:35.386Z,13.86
2017-10-14T01:26:15.965Z,13.79
2017-10-14T01:26:56.556Z,13.75
2017-10-14T01:27:37.112Z,13.81
2017-10-14T01:28:17.693Z,13.86
2017-10-14T01:28:58.314Z,13.81
2017-10-14T01:29:38.886Z,13.83
2017-10-14T01:30:19.458Z,13.79
2017-10-14T01:31:00.016Z,13.75
2017-10-14T01:31:40.571Z,13.79
2017-10-14T01:32:21.148Z,13.81
2017-10-14T01:33:01.716Z,13.79
2017-10-14T01:33:42.278Z,13.79
2017-10-14T01:34:22.865Z,13.83
2017-10-14T01:35:03.413Z,13.81
2017-10-14T01:35:43.979Z,13.81
2017-10-14T01:36:24.554Z,13.86
2017-10-14T01:37:05.114Z,13.79
2017-10-14T01:37:45.665Z,13.85
2017-10-14T01:38:26.239Z,13.86
2017-10-14T01:39:06.813Z,13.89
2017-10-14T01:39:47.456Z,13.92
2017-10-14T01:40:28.007Z,13.9
2017-10-14T01:41:08.606Z,13.89
2017-10-14T01:41:49.156Z,13.87
2017-10-14T01:42:29.724Z,13.9
2017-10-14T01:43:10.319Z,13.87
2017-10-14T01:43:50.871Z,13.92
2017-10-14T01:44:31.441Z,13.89
2017-10-14T01:45:12.030Z,13.87
2017-10-14T01:45:52.605Z,13.86
2017-10-14T01:46:33.183Z,13.9
2017-10-14T01:47:13.751Z,13.9
2017-10-14T01:47:54.318Z,13.92
2017-10-14T01:48:34.897Z,13.9
2017-10-14T01:49:15.494Z,13.89
2017-10-14T01:49:56.068Z,13.86
2017-10-14T01:50:36.664Z,13.92
2017-10-14T01:51:17.231Z,13.87
2017-10-14T01:51:57.849Z,13.89
2017-10-14T01:52:38.463Z,13.89
2017-10-14T01:53:19.031Z,13.9
2017-10-14T01:53:59.620Z,13.9
2017-10-14T01:54:40.219Z,13.93
2017-10-14T01:55:20.780Z,13.92
2017-10-14T01:56:01.374Z,13.9
2017-10-14T01:56:41.961Z,13.96
2017-10-14T01:57:22.535Z,13.93
2017-10-14T01:58:03.141Z,13.89
2017-10-14T01:58:43.765Z,13.92
2017-10-14T01:59:24.350Z,14
2017-10-14T02:00:04.954Z,13.9
2017-10-14T02:00:45.506Z,13.99
2017-10-14T02:01:26.079Z,13.9
2017-10-14T02:02:06.653Z,13.92
2017-10-14T02:02:47.226Z,13.96
2017-10-14T02:03:27.798Z,13.92
2017-10-14T02:04:08.364Z,14.04
2017-10-14T02:04:48.933Z,13.97
2017-10-14T02:05:29.505Z,13.93
2017-10-14T02:06:10.087Z,14.03
2017-10-14T02:06:50.643Z,13.9
2017-10-14T02:07:31.238Z,13.95
2017-10-14T02:08:11.832Z,14
2017-10-14T02:08:52.388Z,13.96
2017-10-14T02:09:32.957Z,14
2017-10-14T02:10:13.538Z,13.96
2017-10-14T02:10:54.117Z,13.87
2017-10-14T02:11:34.742Z,13.93
2017-10-14T02:12:15.323Z,13.97
2017-10-14T02:12:55.889Z,14.04
2017-10-14T02:13:36.446Z,13.99
2017-10-14T02:14:17.011Z,14.03
2017-10-14T02:14:57.571Z,13.97
2017-10-14T02:15:38.154Z,14.04
2017-10-14T02:16:18.736Z,14.08
2017-10-14T02:16:59.328Z,14
2017-10-14T02:17:39.893Z,14.03
2017-10-14T02:18:20.477Z,13.99
2017-10-14T02:19:01.040Z,13.99
2017-10-14T02:19:41.624Z,13.99
2017-10-14T02:20:22.206Z,13.99
2017-10-14T02:21:02.789Z,14
2017-10-14T02:21:43.387Z,13.99
2017-10-14T02:22:23.945Z,14
2017-10-14T02:23:04.549Z,14.04
2017-10-14T02:23:45.122Z,13.99
2017-10-14T02:24:25.704Z,13.97
2017-10-14T02:25:06.322Z,14.11
2017-10-14T02:25:46.904Z,14.03
2017-10-14T02:26:27.481Z,14.03
2017-10-14T02:27:09.974Z,14.05
2017-10-14T02:27:50.579Z,14.04
2017-10-14T02:28:31.144Z,14.05
2017-10-14T02:29:11.774Z,14.04
2017-10-14T02:29:52.335Z,14.08
2017-10-14T02:30:32.916Z,14.07
2017-10-14T02:31:13.485Z,14.05
2017-10-14T02:31:54.050Z,14.08
2017-10-14T02:32:34.614Z,14.1
2017-10-14T02:33:15.213Z,14.04
2017-10-14T02:33:55.793Z,14.11
2017-10-14T02:34:36.365Z,14.12
2017-10-14T02:35:16.923Z,14.1
2017-10-14T02:35:57.515Z,14.18
2017-10-14T02:36:38.111Z,14.17
2017-10-14T02:37:18.713Z,14.14
2017-10-14T02:37:59.284Z,14.11
2017-10-14T02:38:39.878Z,14.08
2017-10-14T02:39:20.431Z,14.17
2017-10-14T02:40:01.015Z,14.2
2017-10-14T02:40:41.593Z,14.14
2017-10-14T02:41:22.158Z,14.17
2017-10-14T02:42:02.730Z,14.1
2017-10-14T02:42:43.304Z,14.12
2017-10-14T02:43:23.867Z,14.18
2017-10-14T02:44:04.425Z,14.12
2017-10-14T02:44:44.994Z,14.2
2017-10-14T02:45:25.547Z,14.23
2017-10-14T02:46:06.101Z,14.17
2017-10-14T02:46:46.673Z,14.18
2017-10-14T02:47:27.226Z,14.22
2017-10-14T02:48:07.791Z,14.18
2017-10-14T02:48:48.356Z,14.22
2017-10-14T02:49:28.915Z,14.28
2017-10-14T02:50:09.487Z,14.26
2017-10-14T02:50:50.071Z,14.28
2017-10-14T02:51:30.637Z,14.26
2017-10-14T02:52:11.210Z,14.32
2017-10-14T02:52:51.770Z,14.23
2017-10-14T02:53:32.342Z,14.29
2017-10-14T02:54:12.915Z,14.33
2017-10-14T02:54:53.487Z,14.28
2017-10-14T02:55:34.059Z,14.23
2017-10-14T02:56:14.622Z,14.22
2017-10-14T02:56:55.207Z,14.25
2017-10-14T02:57:35.775Z,14.26
2017-10-14T02:58:16.336Z,14.3
2017-10-14T02:58:56.897Z,14.28
2017-10-14T02:59:37.461Z,14.32
2017-10-14T03:00:18.045Z,14.26
2017-10-14T03:00:58.651Z,14.26
2017-10-14T03:01:39.204Z,14.32
2017-10-14T03:02:19.769Z,14.36
2017-10-14T03:03:00.336Z,14.33
2017-10-14T03:03:40.906Z,14.26
2017-10-14T03:04:21.474Z,14.2
2017-10-14T03:05:02.053Z,14.32
2017-10-14T03:05:42.619Z,14.32
2017-10-14T03:06:23.188Z,14.33
2017-10-14T03:07:03.749Z,14.29
2017-10-14T03:07:44.321Z,14.35
2017-10-14T03:08:24.897Z,14.33
2017-10-14T03:09:05.454Z,14.35
2017-10-14T03:09:46.022Z,14.33
2017-10-14T03:10:26.592Z,14.35
2017-10-14T03:11:07.160Z,14.43
2017-10-14T03:11:47.731Z,14.41
2017-10-14T03:12:28.330Z,14.4
2017-10-14T03:13:08.908Z,14.41
2017-10-14T03:13:49.468Z,14.33
2017-10-14T03:14:30.037Z,14.36
2017-10-14T03:15:10.600Z,14.33
2017-10-14T03:15:51.187Z,14.33
2017-10-14T03:16:31.769Z,14.32
2017-10-14T03:17:12.332Z,14.35
2017-10-14T03:17:52.898Z,14.43
2017-10-14T03:18:33.487Z,14.32
2017-10-14T03:19:14.064Z,14.45
2017-10-14T03:19:54.617Z,14.35
2017-10-14T03:20:35.197Z,14.43
2017-10-14T03:21:15.755Z,14.43
2017-10-14T03:21:56.325Z,14.3
2017-10-14T03:22:36.906Z,14.41
2017-10-14T03:23:17.467Z,14.37
2017-10-14T03:23:58.057Z,14.41
2017-10-14T03:24:38.640Z,14.43
2017-10-14T03:25:19.226Z,14.35
2017-10-14T03:25:59.814Z,14.43
2017-10-14T03:26:40.386Z,14.37
2017-10-14T03:27:20.948Z,14.41
2017-10-14T03:28:01.515Z,14.43
2017-10-14T03:28:42.079Z,14.4
2017-10-14T03:29:22.653Z,14.43
2017-10-14T03:30:03.234Z,14.33
2017-10-14T03:30:43.791Z,14.41
2017-10-14T03:31:24.359Z,14.36
2017-10-14T03:32:04.938Z,14.36
2017-10-14T03:32:45.516Z,14.35
2017-10-14T03:33:26.095Z,14.36
2017-10-14T03:34:06.680Z,14.37
2017-10-14T03:34:47.251Z,14.37
2017-10-14T03:35:27.841Z,14.35
2017-10-14T03:36:08.435Z,14.4
2017-10-14T03:36:48.998Z,14.41
2017-10-14T03:37:29.555Z,14.43
2017-10-14T03:38:10.159Z,14.43
2017-10-14T03:38:50.722Z,14.41
2017-10-14T03:39:31.292Z,14.41
2017-10-14T03:40:11.876Z,14.35
2017-10-14T03:40:52.442Z,14.44
2017-10-14T03:41:33.011Z,14.4
2017-10-14T03:42:13.598Z,14.41
2017-10-14T03:42:54.164Z,14.35
2017-10-14T03:43:34.735Z,14.37
2017-10-14T03:44:15.318Z,14.45
2017-10-14T03:44:55.888Z,14.44
2017-10-14T03:45:36.460Z,14.55
2017-10-14T03:46:17.032Z,14.47
2017-10-14T03:46:57.593Z,14.53
2017-10-14T03:47:38.159Z,14.48
2017-10-14T03:48:18.714Z,14.53
2017-10-14T03:48:59.305Z,14.47
2017-10-14T03:49:39.870Z,14.44
2017-10-14T03:50:20.438Z,14.41
2017-10-14T03:51:01.006Z,14.53
2017-10-14T03:51:41.559Z,14.53
2017-10-14T03:52:22.122Z,14.53
2017-10-14T03:53:02.683Z,14.5
2017-10-14T03:53:43.251Z,14.6
2017-10-14T03:54:23.824Z,14.5
2017-10-14T03:55:04.390Z,14.53
2017-10-14T03:55:44.954Z,14.58
2017-10-14T03:56:25.521Z,14.5
2017-10-14T03:57:06.085Z,14.48
2017-10-14T03:57:46.701Z,14.54
2017-10-14T03:58:27.273Z,14.51
2017-10-14T03:59:07.838Z,14.5
2017-10-14T03:59:48.409Z,14.51
2017-10-14T04:00:28.968Z,14.54
2017-10-14T04:01:09.528Z,14.5
2017-10-14T04:01:50.114Z,14.55
2017-10-14T04:02:30.697Z,14.58
2017-10-14T04:03:11.258Z,14.53
2017-10-14T04:03:51.838Z,14.53
2017-10-14T04:04:32.404Z,14.54
2017-10-14T04:05:12.977Z,14.5
2017-10-14T04:05:53.535Z,14.48
2017-10-14T04:06:34.103Z,14.53
2017-10-14T04:07:14.665Z,14.45
2017-10-14T04:07:55.231Z,14.55
2017-10-14T04:08:35.799Z,14.47
2017-10-14T04:09:16.361Z,14.53
2017-10-14T04:09:56.946Z,14.41
2017-10-14T04:10:37.499Z,14.53
2017-10-14T04:11:18.099Z,14.45
2017-10-14T04:11:58.665Z,14.59
2017-10-14T04:12:39.221Z,14.55
2017-10-14T04:13:19.892Z,14.45
2017-10-14T04:14:00.458Z,14.58
2017-10-14T04:14:41.033Z,14.58
2017-10-14T04:15:21.595Z,14.54
2017-10-14T04:16:02.170Z,14.43
2017-10-14T04:16:42.736Z,14.48
2017-10-14T04:17:23.288Z,14.48
2017-10-14T04:18:03.849Z,14.53
2017-10-14T04:18:44.436Z,14.48
2017-10-14T04:19:25.004Z,14.48
2017-10-14T04:20:05.572Z,14.5
2017-10-14T04:20:46.149Z,14.53
2017-10-14T04:21:26.724Z,14.63
2017-10-14T04:22:07.281Z,14.5
2017-10-14T04:22:47.857Z,14.48
2017-10-14T04:23:28.423Z,14.54
2017-10-14T04:24:09.005Z,14.51
2017-10-14T04:24:49.562Z,14.54
2017-10-14T04:25:30.124Z,14.5
2017-10-14T04:26:10.686Z,14.5
2017-10-14T04:26:51.283Z,14.5
2017-10-14T04:27:31.838Z,14.65
2017-10-14T04:28:12.412Z,14.5
2017-10-14T04:28:52.989Z,14.54
2017-10-14T04:29:33.560Z,14.59
2017-10-14T04:30:14.140Z,14.51
2017-10-14T04:30:54.694Z,14.53
2017-10-14T04:31:35.274Z,14.66
2017-10-14T04:32:15.841Z,14.62
2017-10-14T04:32:56.400Z,14.59
2017-10-14T04:33:36.994Z,14.48
2017-10-14T04:34:17.576Z,14.55
2017-10-14T04:34:58.177Z,14.54
2017-10-14T04:35:38.733Z,14.54
2017-10-14T04:36:19.299Z,14.59
2017-10-14T04:36:59.865Z,14.5
2017-10-14T04:37:40.436Z,14.54
2017-10-14T04:38:20.998Z,14.5
2017-10-14T04:39:01.566Z,14.51
2017-10-14T04:39:42.153Z,14.53
2017-10-14T04:40:22.716Z,14.54
2017-10-14T04:41:03.312Z,14.53
2017-10-14T04:41:43.870Z,14.63
2017-10-14T04:42:24.430Z,14.5
2017-10-14T04:43:05.004Z,14.6
2017-10-14T04:43:45.582Z,14.63
2017-10-14T04:44:26.163Z,14.5
2017-10-14T04:45:06.732Z,14.5
2017-10-14T04:45:47.317Z,14.53
2017-10-14T04:46:27.878Z,14.5
2017-10-14T04:47:08.463Z,14.48
2017-10-14T04:47:49.036Z,14.48
2017-10-14T04:48:29.618Z,14.45
2017-10-14T04:49:10.177Z,14.63
2017-10-14T04:49:50.760Z,14.51
2017-10-14T04:50:31.343Z,14.51
2017-10-14T04:51:11.917Z,14.5
2017-10-14T04:51:52.490Z,14.53
2017-10-14T04:52:33.063Z,14.62
2017-10-14T04:53:13.661Z,14.47
2017-10-14T04:53:54.220Z,14.48
2017-10-14T04:54:34.787Z,14.54
2017-10-14T04:55:15.358Z,14.5
2017-10-14T04:55:55.938Z,14.5
2017-10-14T04:56:36.506Z,14.58
2017-10-14T04:57:17.074Z,14.53
2017-10-14T04:57:57.673Z,14.51
2017-10-14T04:58:38.253Z,14.51
2017-10-14T04:59:18.839Z,14.53
2017-10-14T04:59:59.423Z,14.51
2017-10-14T05:00:39.992Z,14.54
2017-10-14T05:01:20.561Z,14.51
2017-10-14T05:02:01.118Z,14.54
2017-10-14T05:02:41.686Z,14.63
2017-10-14T05:03:22.260Z,14.54
2017-10-14T05:04:02.821Z,14.53
2017-10-14T05:04:43.393Z,14.59
2017-10-14T05:05:23.967Z,14.63
2017-10-14T05:06:04.561Z,14.55
2017-10-14T05:06:45.123Z,14.58
2017-10-14T05:07:25.710Z,14.53
2017-10-14T05:08:06.278Z,14.6
2017-10-14T05:08:46.857Z,14.55
2017-10-14T05:09:27.417Z,14.58
2017-10-14T05:10:07.976Z,14.6
2017-10-14T05:10:48.547Z,14.6
2017-10-14T05:11:29.167Z,14.6
2017-10-14T05:12:09.730Z,14.53
2017-10-14T05:12:50.302Z,14.58
2017-10-14T05:13:30.872Z,14.62
2017-10-14T05:14:11.432Z,14.62
2017-10-14T05:14:52.002Z,14.58
2017-10-14T05:15:32.566Z,14.62
2017-10-14T05:16:13.132Z,14.6
2017-10-14T05:16:53.708Z,14.55
2017-10-14T05:17:34.269Z,14.58
2017-10-14T05:18:14.856Z,14.58
2017-10-14T05:18:55.427Z,14.59
2017-10-14T05:19:35.988Z,14.58
2017-10-14T05:20:16.559Z,14.62
2017-10-14T05:20:57.127Z,14.58
2017-10-14T05:21:37.690Z,14.6
2017-10-14T05:22:18.245Z,14.6
2017-10-14T05:22:58.818Z,14.59
2017-10-14T05:23:39.379Z,14.54
2017-10-14T05:24:19.937Z,14.58
2017-10-14T05:25:00.497Z,14.62
2017-10-14T05:25:41.088Z,14.55
2017-10-14T05:26:21.631Z,14.58
2017-10-14T05:27:02.196Z,14.58
2017-10-14T05:27:42.757Z,14.58
2017-10-14T05:28:23.319Z,14.58
2017-10-14T05:29:03.885Z,14.62
2017-10-14T05:29:44.450Z,14.58
2017-10-14T05:30:25.009Z,14.58
2017-10-14T05:31:05.588Z,14.53
2017-10-14T05:31:46.180Z,14.51
2017-10-14T05:32:26.761Z,14.58
2017-10-14T05:33:07.332Z,14.62
2017-10-14T05:33:47.903Z,14.58
2017-10-14T05:34:28.469Z,14.59
2017-10-14T05:35:09.035Z,14.54
2017-10-14T05:35:49.621Z,14.58
2017-10-14T05:36:30.209Z,14.55
2017-10-14T05:37:10.787Z,14.65
2017-10-14T05:37:51.358Z,14.53
2017-10-14T05:38:31.966Z,14.63
2017-10-14T05:39:12.553Z,14.62
2017-10-14T05:39:53.118Z,14.63
2017-10-14T05:40:33.689Z,14.6
2017-10-14T05:41:14.257Z,14.62
2017-10-14T05:41:54.838Z,14.58
2017-10-14T05:42:35.400Z,14.58
2017-10-14T05:43:15.968Z,14.55
2017-10-14T05:43:56.549Z,14.59
2017-10-14T05:44:37.137Z,14.62
2017-10-14T05:45:17.711Z,14.63
2017-10-14T05:45:58.270Z,14.63
2017-10-14T05:46:38.839Z,14.7
2017-10-14T05:47:19.401Z,14.63
2017-10-14T05:48:00.026Z,14.6
2017-10-14T05:48:40.592Z,14.6
2017-10-14T05:49:21.197Z,14.68
2017-10-14T05:50:01.805Z,14.6
2017-10-14T05:50:42.378Z,14.63
2017-10-14T05:51:22.948Z,14.73
2017-10-14T05:52:03.542Z,14.58
2017-10-14T05:52:44.138Z,14.63
2017-10-14T05:53:24.701Z,14.6
2017-10-14T05:54:05.274Z,14.6
2017-10-14T05:54:45.878Z,14.63
2017-10-14T05:55:26.458Z,14.65
2017-10-14T05:56:07.025Z,14.68
2017-10-14T05:56:47.613Z,14.65
2017-10-14T05:57:28.169Z,14.65
2017-10-14T05:58:08.736Z,14.68
2017-10-14T05:58:49.308Z,14.66
2017-10-14T05:59:29.866Z,14.54
2017-10-14T06:00:10.435Z,14.7
2017-10-14T06:00:51.008Z,14.72
2017-10-14T06:01:31.583Z,14.69
2017-10-14T06:02:12.151Z,14.65
2017-10-14T06:02:52.715Z,14.68
2017-10-14T06:03:33.304Z,14.7
2017-10-14T06:04:13.873Z,14.69
2017-10-14T06:04:54.447Z,14.69
2017-10-14T06:05:35.030Z,14.69
2017-10-14T06:06:15.607Z,14.69
2017-10-14T06:06:56.192Z,14.68
2017-10-14T06:07:36.778Z,14.73
2017-10-14T06:08:17.338Z,14.69
2017-10-14T06:08:57.948Z,14.72
2017-10-14T06:09:38.509Z,14.7
2017-10-14T06:10:19.096Z,14.68
2017-10-14T06:10:59.655Z,14.72
2017-10-14T06:11:40.230Z,14.66
2017-10-14T06:12:20.818Z,14.69
2017-10-14T06:13:01.379Z,14.68
2017-10-14T06:13:41.943Z,14.66
2017-10-14T06:14:22.530Z,14.72
2017-10-14T06:15:03.115Z,14.78
2017-10-14T06:15:43.698Z,14.82
2017-10-14T06:16:24.283Z,14.84
2017-10-14T06:17:04.842Z,14.78
2017-10-14T06:17:45.406Z,14.84
2017-10-14T06:18:25.994Z,14.84
2017-10-14T06:19:06.617Z,14.81
2017-10-14T06:19:47.255Z,14.78
2017-10-14T06:20:27.828Z,14.85
2017-10-14T06:21:08.365Z,14.82
2017-10-14T06:21:48.942Z,14.81
2017-10-14T06:22:29.509Z,14.88
2017-10-14T06:23:10.090Z,14.89
2017-10-14T06:23:50.684Z,14.81
2017-10-14T06:24:31.241Z,14.84
2017-10-14T06:25:11.812Z,14.86
2017-10-14T06:25:52.381Z,14.92
2017-10-14T06:26:32.940Z,14.89
2017-10-14T06:27:13.506Z,14.82
2017-10-14T06:27:54.078Z,14.88
2017-10-14T06:28:34.645Z,14.99
2017-10-14T06:29:15.220Z,14.89
2017-10-14T06:29:55.780Z,14.84
2017-10-14T06:30:36.354Z,14.92
2017-10-14T06:31:16.918Z,14.88
2017-10-14T06:31:57.482Z,14.96
2017-10-14T06:32:38.056Z,14.84
2017-10-14T06:33:18.613Z,14.94
2017-10-14T06:33:59.176Z,14.88
2017-10-14T06:34:39.735Z,14.96
2017-10-14T06:35:20.325Z,14.99
2017-10-14T06:36:00.894Z,14.89
2017-10-14T06:36:41.479Z,14.91
2017-10-14T06:37:22.053Z,14.97
2017-10-14T06:38:02.617Z,14.99
2017-10-14T06:38:43.174Z,14.94
2017-10-14T06:39:23.749Z,14.99
2017-10-14T06:40:04.311Z,14.96
2017-10-14T06:40:44.869Z,14.94
2017-10-14T06:41:25.431Z,14.99
2017-10-14T06:42:06.007Z,14.92
2017-10-14T06:42:46.568Z,14.99
2017-10-14T06:43:27.130Z,14.92
2017-10-14T06:44:07.701Z,14.94
2017-10-14T06:44:48.270Z,15
2017-10-14T06:45:28.852Z,14.94
2017-10-14T06:46:09.461Z,14.96
2017-10-14T06:46:50.013Z,14.96
2017-10-14T06:47:30.656Z,14.96
2017-10-14T06:48:11.176Z,14.99
2017-10-14T06:48:51.736Z,14.94
2017-10-14T06:49:32.303Z,14.99
2017-10-14T06:50:12.890Z,15.02
2017-10-14T06:50:53.456Z,15.02
2017-10-14T06:51:34.030Z,14.99
2017-10-14T06:52:14.597Z,15.03
2017-10-14T06:52:55.156Z,15.03
2017-10-14T06:53:35.727Z,15
2017-10-14T06:54:16.295Z,15.03
2017-10-14T06:54:56.860Z,15.1
2017-10-14T06:55:37.463Z,15.07
2017-10-14T06:56:18.046Z,15.1
2017-10-14T06:56:58.620Z,15.06
2017-10-14T06:57:39.191Z,15.06
2017-10-14T06:58:19.786Z,15.11
2017-10-14T06:59:00.348Z,15.15
2017-10-14T06:59:40.929Z,15.1
2017-10-14T07:00:21.519Z,15.1
2017-10-14T07:01:02.104Z,15.11
2017-10-14T07:01:42.686Z,15.1
2017-10-14T07:02:23.262Z,15.1
2017-10-14T07:03:03.831Z,15.1
2017-10-14T07:03:44.503Z,15.09
2017-10-14T07:04:25.072Z,15.11
2017-10-14T07:05:05.763Z,15.06
2017-10-14T07:05:46.726Z,15.11
2017-10-14T07:06:27.289Z,15.09
2017-10-14T07:07:07.864Z,15.1
2017-10-14T07:07:48.752Z,15.09
2017-10-14T07:08:29.588Z,15.09
2017-10-14T07:09:10.175Z,15.24
2017-10-14T07:09:50.746Z,15.18
2017-10-14T07:10:31.304Z,15.18
2017-10-14T07:11:11.891Z,15.18
2017-10-14T07:11:52.470Z,15.27
2017-10-14T07:12:33.027Z,15.19
2017-10-14T07:13:13.621Z,15.27
2017-10-14T07:13:54.197Z,15.19
2017-10-14T07:14:34.767Z,15.25
2017-10-14T07:15:15.402Z,15.24
2017-10-14T07:15:55.989Z,15.24
2017-10-14T07:16:36.635Z,15.25
2017-10-14T07:17:17.206Z,15.27
2017-10-14T07:17:57.775Z,15.29
2017-10-14T07:18:38.369Z,15.21
2017-10-14T07:19:18.955Z,15.28
2017-10-14T07:19:59.539Z,15.33
2017-10-14T07:20:40.129Z,15.31
2017-10-14T07:21:20.819Z,15.29
2017-10-14T07:22:01.320Z,15.28
2017-10-14T07:22:41.888Z,15.28
2017-10-14T07:23:22.450Z,15.33
2017-10-14T07:24:03.051Z,15.37
2017-10-14T07:24:43.622Z,15.25
2017-10-14T07:25:24.201Z,15.29
2017-10-14T07:26:04.799Z,15.29
2017-10-14T07:26:45.378Z,15.4
2017-10-14T07:27:25.955Z,15.46
2017-10-14T07:28:06.544Z,15.36
2017-10-14T07:28:47.122Z,15.39
2017-10-14T07:29:27.692Z,15.35
2017-10-14T07:30:08.253Z,15.42
2017-10-14T07:30:48.810Z,15.36
2017-10-14T07:31:29.387Z,15.46
2017-10-14T07:32:09.950Z,15.39
2017-10-14T07:32:50.524Z,15.46
2017-10-14T07:33:31.141Z,15.51
2017-10-14T07:34:11.708Z,15.43
2017-10-14T07:34:52.273Z,15.44
2017-10-14T07:35:32.856Z,15.47
2017-10-14T07:36:13.437Z,15.44
2017-10-14T07:36:54.004Z,15.47
2017-10-14T07:37:34.581Z,15.43
2017-10-14T07:38:15.146Z,15.49
2017-10-14T07:38:55.714Z,15.43
2017-10-14T07:39:36.287Z,15.54
2017-10-14T07:40:16.889Z,15.46
2017-10-14T07:40:57.479Z,15.52
2017-10-14T07:41:38.188Z,15.47
2017-10-14T07:42:18.754Z,15.54
2017-10-14T07:42:59.333Z,15.51
2017-10-14T07:43:39.923Z,15.47
2017-10-14T07:44:20.513Z,15.49
2017-10-14T07:45:01.138Z,15.54
2017-10-14T07:45:43.042Z,15.58
2017-10-14T07:46:23.609Z,15.44
2017-10-14T07:47:04.172Z,15.51
2017-10-14T07:47:44.761Z,15.51
2017-10-14T07:48:25.348Z,15.54
2017-10-14T07:49:05.914Z,15.54
2017-10-14T07:49:46.536Z,15.54
2017-10-14T07:50:27.123Z,15.55
2017-10-14T07:51:07.729Z,15.55
2017-10-14T07:51:48.464Z,15.61
2017-10-14T07:52:29.141Z,15.58
2017-10-14T07:53:09.707Z,15.58
2017-10-14T07:53:50.268Z,15.61
2017-10-14T07:54:30.826Z,15.59
2017-10-14T07:55:11.397Z,15.64
2017-10-14T07:55:51.982Z,15.59
2017-10-14T07:56:32.567Z,15.65
2017-10-14T07:57:13.168Z,15.59
2017-10-14T07:57:53.777Z,15.68
2017-10-14T07:58:34.336Z,15.76
2017-10-14T07:59:14.914Z,15.77
2017-10-14T07:59:55.494Z,15.83
2017-10-14T08:00:36.078Z,15.86
2017-10-14T08:01:16.641Z,15.88
2017-10-14T08:01:57.201Z,15.9
2017-10-14T08:02:37.764Z,15.86
2017-10-14T08:03:18.345Z,15.97
2017-10-14T08:03:58.947Z,15.98
2017-10-14T08:04:39.685Z,15.94
2017-10-14T08:05:20.254Z,16.04
2017-10-14T08:06:00.827Z,15.95
2017-10-14T08:06:41.404Z,15.98
2017-10-14T08:07:21.973Z,15.95
2017-10-14T08:08:02.560Z,16
2017-10-14T08:08:43.130Z,16
2017-10-14T08:09:23.718Z,15.98
2017-10-14T08:10:04.292Z,16.04
2017-10-14T08:10:44.868Z,16.09
2017-10-14T08:11:25.451Z,16.08
2017-10-14T08:12:06.024Z,16.15
2017-10-14T08:12:46.585Z,16.23
2017-10-14T08:13:27.151Z,16.21
2017-10-14T08:14:07.736Z,16.31
2017-10-14T08:14:48.309Z,16.32
2017-10-14T08:15:28.909Z,16.38
2017-10-14T08:16:09.472Z,16.33
2017-10-14T08:16:50.040Z,16.39
2017-10-14T08:17:30.626Z,16.41
2017-10-14T08:18:11.212Z,16.42
2017-10-14T08:18:51.779Z,16.38
2017-10-14T08:19:32.494Z,16.41
2017-10-14T08:20:13.054Z,16.5
2017-10-14T08:20:53.664Z,16.49
2017-10-14T08:21:34.246Z,16.47
2017-10-14T08:22:14.816Z,16.38
2017-10-14T08:22:55.390Z,16.47
2017-10-14T08:23:35.990Z,16.46
2017-10-14T08:24:16.552Z,16.46
2017-10-14T08:24:57.117Z,16.46
2017-10-14T08:25:37.696Z,16.39
2017-10-14T08:26:18.260Z,16.41
2017-10-14T08:26:58.849Z,16.36
2017-10-14T08:27:39.444Z,16.33
2017-10-14T08:28:20.012Z,16.41
2017-10-14T08:29:00.590Z,16.41
2017-10-14T08:29:41.164Z,16.38
2017-10-14T08:30:21.761Z,16.38
2017-10-14T08:31:02.326Z,16.35
2017-10-14T08:31:42.910Z,16.38
2017-10-14T08:32:23.466Z,16.39
2017-10-14T08:33:04.033Z,16.38
2017-10-14T08:33:44.599Z,16.35
2017-10-14T08:34:25.161Z,16.36
2017-10-14T08:35:05.728Z,16.36
2017-10-14T08:35:46.290Z,16.32
2017-10-14T08:36:26.849Z,16.36
2017-10-14T08:37:07.413Z,16.42
2017-10-14T08:37:47.982Z,16.36
2017-10-14T08:38:28.549Z,16.36
2017-10-14T08:39:09.119Z,16.42
2017-10-14T08:39:49.725Z,16.46
2017-10-14T08:40:30.295Z,16.47
2017-10-14T08:41:10.866Z,16.41
2017-10-14T08:41:51.459Z,16.39
2017-10-14T08:42:32.025Z,16.43
2017-10-14T08:43:12.589Z,16.42
2017-10-14T08:43:53.161Z,16.47
2017-10-14T08:44:33.730Z,16.49
2017-10-14T08:45:14.323Z,16.49
2017-10-14T08:45:55.442Z,16.46
2017-10-14T08:46:36.023Z,16.42